SILO ALERT LOG


Silo ID Alert Type Alert Message Silo Type Points Depth (mm) Strength Temperature (°C) Humidity (%) Height (mm) Volume (㎥) Weight (t) Flag Time
WJWJR05 Humidity 습도센서 측정값이 80% 초과 59 7910 2457 25.5 82.3 -190 -21.488 0 0 2026-08-20 01:25:42.000
WJWJR01 Humidity 습도센서 측정값이 80% 초과 82 7670 1096 24.6 88.8 -30 -3.393 0 0 2026-08-19 09:26:07.000
WJWJR05 Humidity 습도센서 측정값이 80% 초과 56 7820 2427 24.8 87.4 -100 -11.31 0 0 2026-08-19 09:25:46.000
WJWJR01 Humidity 습도센서 측정값이 80% 초과 83 7710 1073 23.3 89.6 -70 -7.917 0 0 2026-08-19 05:26:01.000
WJWJR05 Humidity 습도센서 측정값이 80% 초과 59 7900 2424 24 85.6 -180 -20.358 0 0 2026-08-19 05:25:46.000
WJWJR01 Humidity 습도센서 측정값이 80% 초과 83 7700 1065 24.6 86.8 -60 -6.786 0 0 2026-08-19 01:25:59.000
WJWJR05 Humidity 습도센서 측정값이 80% 초과 59 7900 2457 25.4 83.2 -180 -20.358 0 0 2026-08-19 01:25:43.000
WJWJR05 Humidity 습도센서 측정값이 80% 초과 48 7710 2484 30.6 80.7 9 1.131 0.715 0 2026-08-18 13:25:45.000
WJWJR01 Humidity 습도센서 측정값이 80% 초과 77 7640 1091 25.8 88.2 0 0 0 0 2026-08-18 09:26:01.000
WJWJR05 Humidity 습도센서 측정값이 80% 초과 56 7900 2456 26.1 90.4 -180 -20.358 0 0 2026-08-18 09:25:50.000
WJWJR01 Humidity 습도센서 측정값이 80% 초과 72 7710 1092 24 90.6 -70 -7.917 0 0 2026-08-18 05:26:04.000
WJWJR05 Humidity 습도센서 측정값이 80% 초과 56 7810 2495 24.4 87.9 -89 -10.179 0 0 2026-08-18 05:25:46.000
WJWJR01 Humidity 습도센서 측정값이 80% 초과 76 7680 1078 24.4 89.6 -40 -4.524 0 0 2026-08-18 01:26:04.000
WJWJR05 Humidity 습도센서 측정값이 80% 초과 48 7730 2506 24.8 86.6 -10 -1.131 0 0 2026-08-18 01:25:43.000
WJWJR01 Humidity 습도센서 측정값이 80% 초과 77 7670 1100 25.2 86 -30 -3.393 0 0 2026-08-17 21:26:01.000
WJWJR05 Humidity 습도센서 측정값이 80% 초과 58 7870 2492 25.6 83.4 -150 -16.965 0 0 2026-08-17 21:25:45.000
WJWJR01 Humidity 습도센서 측정값이 80% 초과 73 7690 1076 26.5 82.8 -50 -5.655 0 0 2026-08-17 13:26:03.000
WJWJR05 Humidity 습도센서 측정값이 80% 초과 47 7850 2459 26.2 83.3 -129 -14.703 0 0 2026-08-17 13:25:42.000
WJWJR01 Humidity 습도센서 측정값이 80% 초과 76 7670 1090 24.7 89.7 -30 -3.393 0 0 2026-08-17 09:26:03.000
WJWJR05 Humidity 습도센서 측정값이 80% 초과 59 7900 2453 24.8 87.9 -180 -20.358 0 0 2026-08-17 09:25:47.000

[첫 페이지] [5] [6] [7] [8] 9 [10] [11] [12] [13] [마지막 페이지]